createdAt,value
2023-03-07T00:01:34.630Z,98758.75
2023-03-07T00:05:37.806Z,98750.91
2023-03-07T00:09:40.801Z,98751.78
2023-03-07T00:13:45.444Z,98750.88
2023-03-07T00:17:48.434Z,98753.47
2023-03-07T00:21:51.540Z,98736.06
2023-03-07T00:26:02.124Z,98744.78
2023-03-07T00:30:07.689Z,98734.28
2023-03-07T00:34:10.654Z,98734.28
2023-03-07T00:38:13.752Z,98736.00
2023-03-07T00:42:17.413Z,98724.69
2023-03-07T00:46:24.498Z,98722.06
2023-03-07T00:50:27.481Z,98732.50
2023-03-07T00:54:30.903Z,98731.59
2023-03-07T00:58:36.104Z,98725.44
2023-03-07T01:02:40.820Z,98726.31
2023-03-07T01:06:43.833Z,98715.88
2023-03-07T01:10:48.678Z,98710.59
2023-03-07T01:14:52.566Z,98705.34
2023-03-07T01:18:58.820Z,98711.41
2023-03-07T01:23:03.894Z,98710.50
2023-03-07T01:27:07.755Z,98706.97
2023-03-07T01:31:10.837Z,98702.59
2023-03-07T01:35:16.834Z,98702.59
2023-03-07T01:39:19.816Z,98697.34
2023-03-07T01:43:35.289Z,98694.72
2023-03-07T01:47:43.612Z,98692.13
2023-03-07T01:51:52.260Z,98683.38
2023-03-07T01:55:55.350Z,98678.13
2023-03-07T02:00:05.769Z,98675.50
2023-03-07T02:04:22.523Z,98668.53
2023-03-07T02:12:48.165Z,98666.75
2023-03-07T02:16:52.258Z,98658.06
2023-03-07T02:21:01.719Z,98661.53
2023-03-07T02:25:13.493Z,98662.38
2023-03-07T02:29:18.065Z,98658.88
2023-03-07T02:33:25.126Z,98651.94
2023-03-07T02:37:38.219Z,98645.88
2023-03-07T02:41:42.123Z,98648.50
2023-03-07T02:45:55.729Z,98650.22
2023-03-07T02:49:58.937Z,98638.06
2023-03-07T02:54:02.734Z,98641.56
2023-03-07T02:58:06.159Z,98641.56
2023-03-07T03:02:10.592Z,98637.22
2023-03-07T03:06:13.914Z,98642.38
2023-03-07T03:10:17.259Z,98633.69
2023-03-07T03:14:20.600Z,98634.56
2023-03-07T03:18:25.489Z,98636.31
2023-03-07T03:22:28.755Z,98638.06
2023-03-07T03:26:31.988Z,98629.38
2023-03-07T03:30:36.101Z,98631.13
2023-03-07T03:34:41.910Z,98627.63
2023-03-07T03:38:45.334Z,98624.13
2023-03-07T03:42:48.433Z,98632.84
2023-03-07T03:46:55.857Z,98619.81
2023-03-07T03:51:06.120Z,98620.69
2023-03-07T03:55:10.384Z,98624.13
2023-03-07T03:59:13.474Z,98625.03
2023-03-07T04:03:16.631Z,98625.84
2023-03-07T04:07:22.223Z,98634.50
2023-03-07T04:11:26.938Z,98635.34
2023-03-07T04:15:30.145Z,98634.47
2023-03-07T04:19:33.404Z,98629.25
2023-03-07T04:23:38.457Z,98631.84
2023-03-07T04:27:41.783Z,98630.94
2023-03-07T04:31:45.029Z,98631.84
2023-03-07T04:35:48.685Z,98633.56
2023-03-07T04:39:53.180Z,98627.50
2023-03-07T04:43:57.057Z,98626.66
2023-03-07T04:48:01.351Z,98619.75
2023-03-07T04:52:05.584Z,98610.22
2023-03-07T04:56:11.549Z,98611.97
2023-03-07T05:00:17.107Z,98622.44
2023-03-07T05:04:20.709Z,98625.09
2023-03-07T05:08:24.345Z,98636.41
2023-03-07T05:12:29.216Z,98632.94
2023-03-07T05:16:33.653Z,98632.97
2023-03-07T05:20:36.866Z,98633.84
2023-03-07T05:24:40.112Z,98639.97
2023-03-07T05:28:44.736Z,98642.56
2023-03-07T05:32:47.910Z,98640.75
2023-03-07T05:36:51.802Z,98639.84
2023-03-07T05:40:55.299Z,98645.88
2023-03-07T05:44:59.798Z,98638.88
2023-03-07T05:49:03.063Z,98644.09
2023-03-07T05:53:06.535Z,98644.03
2023-03-07T05:57:10.168Z,98640.53
2023-03-07T06:01:14.894Z,98644.81
2023-03-07T06:05:18.196Z,98643.03
2023-03-07T06:09:22.356Z,98645.59
2023-03-07T06:13:26.693Z,98645.56
2023-03-07T06:17:31.160Z,98642.97
2023-03-07T06:21:34.736Z,98645.59
2023-03-07T06:25:38.329Z,98649.94
2023-03-07T06:29:41.613Z,98643.88
2023-03-07T06:33:47.669Z,98647.41
2023-03-07T06:37:52.376Z,98650.06
2023-03-07T06:41:55.494Z,98653.59
2023-03-07T06:45:58.718Z,98645.78
2023-03-07T06:50:09.103Z,98640.59
2023-03-07T06:54:13.401Z,98640.59
2023-03-07T06:58:16.902Z,98644.06
2023-03-07T07:02:20.467Z,98643.19
2023-03-07T07:06:25.405Z,98646.69
2023-03-07T07:10:28.848Z,98642.38
2023-03-07T07:14:32.394Z,98640.69
2023-03-07T07:18:35.940Z,98637.25
2023-03-07T07:22:43.368Z,98639.03
2023-03-07T07:26:46.603Z,98637.34
2023-03-07T07:30:49.652Z,98645.16
2023-03-07T07:34:53.104Z,98653.94
2023-03-07T07:38:57.840Z,98652.25
2023-03-07T07:43:01.050Z,98659.25
2023-03-07T07:47:20.026Z,98666.25
2023-03-07T07:51:23.344Z,98658.47
2023-03-07T07:55:28.536Z,98649.81
2023-03-07T07:59:34.275Z,98660.28
2023-03-07T08:03:38.404Z,98654.22
2023-03-07T08:07:41.574Z,98647.28
2023-03-07T08:11:46.500Z,98638.63
2023-03-07T08:15:49.656Z,98637.75
2023-03-07T08:19:52.732Z,98638.66
2023-03-07T08:23:56.710Z,98635.22
2023-03-07T08:28:03.486Z,98625.63
2023-03-07T08:32:07.315Z,98624.75
2023-03-07T08:36:10.741Z,98624.75
2023-03-07T08:40:14.621Z,98619.53
2023-03-07T08:44:19.032Z,98614.25
2023-03-07T08:48:22.184Z,98615.13
2023-03-07T08:52:25.236Z,98605.53
2023-03-07T08:56:28.393Z,98610.72
2023-03-07T09:00:32.948Z,98610.72
2023-03-07T09:04:36.161Z,98615.06
2023-03-07T09:08:39.167Z,98615.00
2023-03-07T09:12:42.233Z,98604.50
2023-03-07T09:16:46.587Z,98605.34
2023-03-07T09:20:51.043Z,98600.09
2023-03-07T09:24:54.055Z,98606.19
2023-03-07T09:28:57.153Z,98603.50
2023-03-07T09:33:01.577Z,98608.72
2023-03-07T09:37:04.764Z,98591.25
2023-03-07T09:41:27.642Z,98585.09
2023-03-07T09:45:45.365Z,98580.75
2023-03-07T09:49:55.358Z,98576.31
2023-03-07T09:54:01.953Z,98572.78
2023-03-07T09:58:10.942Z,98570.06
2023-03-07T10:02:21.679Z,98559.47
2023-03-07T10:06:31.521Z,98561.03
2023-03-07T10:10:39.818Z,98546.00
2023-03-07T10:14:56.108Z,98550.16
2023-03-07T10:19:10.032Z,98544.75
2023-03-07T10:23:39.144Z,98540.09
2023-03-07T10:27:42.305Z,98537.34
2023-03-07T10:31:50.014Z,98525.78
2023-03-07T10:35:59.205Z,98528.38
2023-03-07T10:40:05.061Z,98516.97
2023-03-07T10:44:17.486Z,98519.47
2023-03-07T10:48:23.558Z,98512.28
2023-03-07T10:52:35.196Z,98511.28
2023-03-07T10:56:39.650Z,98495.44
2023-03-07T11:00:44.400Z,98490.91
2023-03-07T11:04:48.436Z,98480.28
2023-03-07T11:08:51.565Z,98480.16
2023-03-07T11:12:57.389Z,98473.16
2023-03-07T11:17:02.063Z,98471.41
2023-03-07T11:21:05.486Z,98457.22
2023-03-07T11:25:19.066Z,98450.13
2023-03-07T11:29:24.900Z,98437.78
2023-03-07T11:33:39.271Z,98440.13
2023-03-07T11:37:58.793Z,98428.38
2023-03-07T11:42:06.311Z,98424.88
2023-03-07T11:46:17.654Z,98414.16
2023-03-07T11:50:24.279Z,98401.75
2023-03-07T11:54:35.585Z,98397.28
2023-03-07T11:58:53.005Z,98400.84
2023-03-07T12:03:15.076Z,98387.69
2023-03-07T12:07:33.569Z,98385.84
2023-03-07T12:11:52.141Z,98381.28
2023-03-07T12:16:06.221Z,98378.44
2023-03-07T12:20:27.192Z,98365.97
2023-03-07T12:24:36.297Z,98353.81
2023-03-07T12:28:46.557Z,98364.31
2023-03-07T12:32:52.066Z,98346.75
2023-03-07T12:37:00.737Z,98352.06
2023-03-07T12:41:12.167Z,98330.06
2023-03-07T12:45:19.944Z,98321.28
2023-03-07T12:49:32.266Z,98316.94
2023-03-07T12:53:47.770Z,98316.03
2023-03-07T12:57:59.323Z,98304.63
2023-03-07T13:02:05.559Z,98311.59
2023-03-07T13:06:17.892Z,98312.63
2023-03-07T13:10:24.521Z,98303.09
2023-03-07T13:14:46.172Z,98299.00
2023-03-07T13:18:49.135Z,98292.09
2023-03-07T13:23:01.308Z,98280.81
2023-03-07T13:27:15.244Z,98279.38
2023-03-07T13:31:39.839Z,98274.31
2023-03-07T13:35:55.763Z,98267.31
2023-03-07T13:40:02.807Z,98270.81
2023-03-07T13:44:29.017Z,98258.53
2023-03-07T13:49:02.029Z,98249.00
2023-03-07T13:53:12.767Z,98250.78
2023-03-07T13:57:17.960Z,98252.63
2023-03-07T14:01:25.542Z,98242.09
2023-03-07T14:05:30.062Z,98233.50
2023-03-07T14:09:41.928Z,98242.38
2023-03-07T14:14:20.562Z,98231.25
2023-03-07T14:18:37.432Z,98235.97
2023-03-07T14:22:52.466Z,98246.75
2023-03-07T14:26:58.803Z,98251.41
2023-03-07T14:31:05.528Z,98241.22
2023-03-07T14:35:15.233Z,98248.53
2023-03-07T14:39:18.654Z,98239.16
2023-03-07T14:43:37.685Z,98235.06
2023-03-07T14:48:00.246Z,98236.25
2023-03-07T14:52:05.617Z,98237.28
2023-03-07T14:56:09.820Z,98243.59
2023-03-07T15:00:16.741Z,98232.31
2023-03-07T15:04:24.915Z,98226.19
2023-03-07T15:08:31.622Z,98228.91
2023-03-07T15:12:34.839Z,98209.75
2023-03-07T15:16:41.472Z,98214.28
2023-03-07T15:20:45.789Z,98202.22
2023-03-07T15:24:52.988Z,98209.34
2023-03-07T15:29:01.382Z,98188.41
2023-03-07T15:33:06.468Z,98202.38
2023-03-07T15:37:22.651Z,98189.41
2023-03-07T15:41:29.787Z,98180.75
2023-03-07T15:45:35.160Z,98171.25
2023-03-07T15:49:44.348Z,98178.31
2023-03-07T15:53:56.075Z,98162.78
2023-03-07T15:58:02.916Z,98174.22
2023-03-07T16:02:42.114Z,98185.63
2023-03-07T16:06:46.818Z,98186.59
2023-03-07T16:10:53.704Z,98186.69
2023-03-07T16:15:00.012Z,98185.03
2023-03-07T16:19:03.548Z,98197.31
2023-03-07T16:23:08.031Z,98186.88
2023-03-07T16:27:16.605Z,98184.28
2023-03-07T16:31:21.603Z,98190.38
2023-03-07T16:35:26.414Z,98172.09
2023-03-07T16:39:29.758Z,98162.56
2023-03-07T16:43:35.313Z,98156.53
2023-03-07T16:47:39.698Z,98168.78
2023-03-07T16:51:42.904Z,98171.47
2023-03-07T16:55:46.974Z,98178.47
2023-03-07T16:59:50.041Z,98180.25
2023-03-07T17:03:56.382Z,98183.72
2023-03-07T17:08:00.145Z,98192.44
2023-03-07T17:12:03.206Z,98187.25
2023-03-07T17:16:06.631Z,98190.75
2023-03-07T17:20:14.156Z,98208.22
2023-03-07T17:24:17.327Z,98203.00
2023-03-07T17:28:20.672Z,98200.34
2023-03-07T17:32:24.209Z,98207.34
2023-03-07T17:36:28.602Z,98196.88
2023-03-07T17:40:32.322Z,98190.75
2023-03-07T17:44:35.570Z,98194.25
2023-03-07T17:48:38.908Z,98202.06
2023-03-07T17:52:43.567Z,98202.03
2023-03-07T17:56:46.778Z,98201.16
2023-03-07T18:00:50.452Z,98207.28
2023-03-07T18:04:53.729Z,98197.66
2023-03-07T18:08:58.143Z,98199.41
2023-03-07T18:13:01.306Z,98192.44
2023-03-07T18:17:04.404Z,98192.41
2023-03-07T18:21:10.244Z,98206.34
2023-03-07T18:25:16.951Z,98206.34
2023-03-07T18:29:21.015Z,98225.53
2023-03-07T18:33:24.908Z,98223.78
2023-03-07T18:37:29.731Z,98203.75
2023-03-07T18:41:34.161Z,98218.66
2023-03-07T18:45:37.241Z,98196.91
2023-03-07T18:49:40.342Z,98196.03
2023-03-07T18:53:43.849Z,98199.53
2023-03-07T18:57:48.253Z,98184.75
2023-03-07T19:01:51.377Z,98189.97
2023-03-07T19:05:54.399Z,98208.28
2023-03-07T19:09:57.685Z,98230.94
2023-03-07T19:14:02.145Z,98239.63
2023-03-07T19:18:05.270Z,98241.41
2023-03-07T19:22:10.928Z,98228.34
2023-03-07T19:26:16.702Z,98224.03
2023-03-07T19:30:21.365Z,98220.56
2023-03-07T19:34:24.969Z,98234.50
2023-03-07T19:38:28.004Z,98251.06
2023-03-07T19:42:31.093Z,98257.16
2023-03-07T19:46:35.461Z,98250.22
2023-03-07T19:50:41.718Z,98241.53
2023-03-07T19:54:45.488Z,98251.09
2023-03-07T19:58:49.113Z,98249.38
2023-03-07T20:02:53.560Z,98251.06
2023-03-07T20:06:56.647Z,98271.97
2023-03-07T20:11:12.656Z,98267.66
2023-03-07T20:15:15.889Z,98272.88
2023-03-07T20:19:20.757Z,98265.94
2023-03-07T20:23:23.812Z,98268.56
2023-03-07T20:27:27.224Z,98267.72
2023-03-07T20:31:30.705Z,98252.91
2023-03-07T20:35:35.317Z,98259.88
2023-03-07T20:39:38.732Z,98253.78
2023-03-07T20:43:41.769Z,98265.94
2023-03-07T20:47:44.878Z,98253.78
2023-03-07T20:51:49.745Z,98248.56
2023-03-07T20:55:52.904Z,98238.13
2023-03-07T20:59:56.028Z,98255.53
2023-03-07T21:04:06.133Z,98233.75
2023-03-07T21:08:11.175Z,98242.44
2023-03-07T21:12:14.212Z,98240.69
2023-03-07T21:16:19.338Z,98249.41
2023-03-07T21:20:22.424Z,98239.84
2023-03-07T21:24:26.800Z,98236.38
2023-03-07T21:28:29.844Z,98246.84
2023-03-07T21:32:32.880Z,98263.38
2023-03-07T21:36:36.330Z,98256.44
2023-03-07T21:40:42.513Z,98266.88
2023-03-07T21:44:45.606Z,98270.34
2023-03-07T21:48:48.818Z,98275.56
2023-03-07T21:52:51.890Z,98284.31
2023-03-07T21:56:56.329Z,98291.28
2023-03-07T22:00:59.975Z,98289.50
2023-03-07T22:05:02.998Z,98285.16
2023-03-07T22:09:06.161Z,98287.75
2023-03-07T22:13:10.622Z,98295.63
2023-03-07T22:17:13.892Z,98289.53
2023-03-07T22:21:17.301Z,98297.34
2023-03-07T22:25:20.469Z,98297.34
2023-03-07T22:29:24.836Z,98301.69
2023-03-07T22:33:27.945Z,98312.16
2023-03-07T22:37:31.155Z,98311.28
2023-03-07T22:41:34.950Z,98322.59
2023-03-07T22:45:39.359Z,98333.88
2023-03-07T22:49:42.623Z,98333.88
2023-03-07T22:53:45.910Z,98351.25
2023-03-07T22:57:49.021Z,98355.59
2023-03-07T23:01:54.743Z,98373.81
2023-03-07T23:06:02.190Z,98383.34
2023-03-07T23:10:05.821Z,98380.66
2023-03-07T23:14:09.559Z,98371.97
2023-03-07T23:18:14.681Z,98357.22
2023-03-07T23:22:17.862Z,98358.97
2023-03-07T23:26:23.058Z,98352.88
2023-03-07T23:30:26.126Z,98352.88
2023-03-07T23:34:30.966Z,98348.56
2023-03-07T23:38:34.318Z,98347.66
2023-03-07T23:42:37.545Z,98354.63
2023-03-07T23:46:40.676Z,98354.66
2023-03-07T23:50:45.075Z,98351.16
2023-03-07T23:54:48.162Z,98349.44
2023-03-07T23:58:51.637Z,98356.38
